AirNav   Advertisement
 
 367 users online  

NY09 Middle Hope Airport
Newburgh, New York, USA

GOING TO NEWBURGH?


FAA INFORMATION EFFECTIVE 20 JULY 2017

Location

FAA Identifier: NY09
Lat/Long: 41-33-40.3370N / 074-00-58.5050W
41-33.672283N / 074-00.975083W
41.5612047 / -74.0162514
(estimated)
Elevation: 450 ft. / 137 m (estimated)
Variation: 13W (1985)
From city: 3 miles N of NEWBURGH, NY
Time zone: UTC -4 (UTC -5 during Standard Time)
Zip code: 12550

Airport Operations

Airport use: Private use. Permission required prior to landing
Activation date: 05/1960
Control tower: no
ARTCC: BOSTON CENTER
FSS: NEW YORK FLIGHT SERVICE STATION
Attendance: UNATNDD
Wind indicator: yes
Segmented circle: no

Airport Communications

WX ASOS at POU (7 nm NE): 126.75 (845-462-0648)
WX ASOS at MGJ (12 nm W): 119.275 (845-457-1486)

Nearby radio navigation aids

VOR radial/distance  VOR name  Freq  Var
IGNr246/10.7KINGSTON VOR/DME117.6012W
PWLr248/22.4PAWLING VOR/DME114.3012W
CMKr323/25.8CARMEL VOR/DME116.6012W
HUOr082/27.4HUGUENOT VOR/DME116.1011W
SAXr049/37.8SPARTA VORTAC115.7011W

 
NDB name  Hdg/Dist  Freq  Var  ID
STANWYCK045/2.426112WSKU ... -.- ..-
NEELY079/10.533514WSW ... .--

Airport Services

Airframe service: NONE
Powerplant service: NONE

Runway Information

Runway 9/27

Dimensions: 1600 x 90 ft. / 488 x 27 m
Surface: turf
RUNWAY 9  RUNWAY 27
Traffic pattern: leftleft
Obstructions: road, 1:1 slope to cleartree, 100 ft. from runway, 4:1 slope to clear

Airport Ownership and Management from official FAA records

Ownership: Privately-owned
Owner: T. F. & D. B. TAYLOR
78HOLMES RD
NEWBURGH, NY 12550
Phone 845-564-1931
Manager: T. F. TAYLOR
78 HOLMES RD
NEWBURGH, NY 12550
Phone 845-562-0489

Airport Operational Statistics

Aircraft operations: 10/year *
100% local general aviation
* for 12-month period ending 08 June 1981

Instrument Procedures

There are no published instrument procedures at NY09.

Some nearby airports with instrument procedures:

KSWF - Stewart International Airport (5 nm SW)
KPOU - Hudson Valley Regional Airport (7 nm NE)
KMGJ - Orange County Airport (12 nm W)
N69 - Stormville Airport (13 nm E)
44N - Sky Acres Airport (15 nm NE)
06N - Randall Airport (19 nm SW)
N89 - Joseph Y Resnick Airport (19 nm NW)
N82 - Wurtsboro-Sullivan County Airport (20 nm W)
 
Loc | Ops | Rwys | IFR | FBO | Links
Com | Nav | Svcs | Stats | Notes


 
Area around NY09 (Middle Hope Airport)
 
Road maps at: MapQuest Bing Google
 
Aerial photo
No photo
 
Sectional chart

 
Airport distance calculator
Flying to Middle Hope Airport? Find the distance to fly.

From to NY09

Sunrise and sunset
Times for 27-Jul-2017
 Local
(UTC-4)
 Zulu
(UTC)
Morning civil twilight05:1509:15
Sunrise05:4709:47
Sunset20:1800:18
Evening civil twilight20:5000:50

Current date and time
Zulu (UTC)  27-Jul-2017 06:15:08
Local (UTC-4)  27-Jul-2017 02:15:08
 
METAR
KSWF 
5nm SW 
270545Z 00000KT 10SM SCT040 17/14 A3012
KPOU 
7nm NE 
270553Z VRB03KT 10SM FEW039 17/13 A3009 RMK AO2 SLP185 T01720128 10217 20161 56012
KMGJ 
12nm W 
SuperAWOS
270554Z AUTO 00000KT 10SM CLR 16/14 A3010 RMK AO2 SLP192 T01560139 10217 20150 56012 TSNO
TAF
KSWF 
5nm SW 
270535Z 2706/2812 VRB03KT P6SM FEW050 SCT250 TEMPO 2710/2713 5SM BR SCT004 FM271300 24007KT P6SM BKN030 FM272000 23007KT P6SM BKN030 PROB30 2720/2724 5SM -SHRA BR FM280100 VRB02KT P6SM SCT010 BKN100 AMD NOT SKED
KPOU 
7nm NE 
270534Z 2706/2806 VRB03KT P6SM BKN050 BKN100 FM271200 23006KT P6SM VCSH SCT020 OVC040 TEMPO 2715/2719 3SM -SHRA BR SCT010 OVC020 FM271900 25006KT P6SM VCSH SCT020 BKN040 BKN080 FM280000 VRB03KT 4SM BR VCSH BKN020 BKN050
NOTAMs
Click for the latest NOTAMs
NOTAMs are issued by the DoD/FAA and will open in a separate window not controlled by AirNav.

 

 
 

Would you like to see your business listed on this page?

 If your business provides an interesting product or service to pilots, flight crews, aircraft, or users of the Middle Hope Airport, you should consider listing it here.  To start the listing process, click on the button below
 
Add a business
 

Other Pages about Middle Hope Airport

Update a link
 
Copyright © AirNav, LLC. All rights reserved. Privacy Policy  Contact